createdAt,value
2017-12-04T00:02:33.896Z,-2.20
2017-12-04T00:08:02.035Z,-2.20
2017-12-04T00:13:30.953Z,-2.10
2017-12-04T00:18:59.110Z,-2.10
2017-12-04T00:24:28.236Z,-2.00
2017-12-04T00:29:59.124Z,-2.00
2017-12-04T00:35:28.023Z,-1.90
2017-12-04T00:40:56.482Z,-1.90
2017-12-04T00:46:25.410Z,-1.80
2017-12-04T00:51:53.548Z,-1.80
2017-12-04T00:57:22.440Z,-1.70
2017-12-04T01:02:50.820Z,-1.60
2017-12-04T01:08:18.958Z,-1.60
2017-12-04T01:13:47.098Z,-1.50
2017-12-04T01:19:15.243Z,-1.50
2017-12-04T01:24:43.394Z,-1.50
2017-12-04T01:30:11.535Z,-1.40
2017-12-04T01:35:39.666Z,-1.40
2017-12-04T01:41:08.116Z,-1.30
2017-12-04T01:46:36.534Z,-1.30
2017-12-04T01:52:07.369Z,-1.40
2017-12-04T01:57:35.512Z,-1.40
2017-12-04T02:03:04.423Z,-1.40
2017-12-04T02:08:32.579Z,-1.50
2017-12-04T02:14:00.744Z,-1.60
2017-12-04T02:19:32.949Z,-1.60
2017-12-04T02:25:01.358Z,-1.60
2017-12-04T02:30:29.508Z,-1.50
2017-12-04T02:35:58.457Z,-1.40
2017-12-04T02:41:26.630Z,-1.40
2017-12-04T02:46:54.789Z,-1.30
2017-12-04T02:52:22.966Z,-1.20
2017-12-04T02:57:51.101Z,-1.20
2017-12-04T03:03:19.516Z,-1.20
2017-12-04T03:08:47.648Z,-1.30
2017-12-04T03:14:24.446Z,-1.30
2017-12-04T03:19:52.617Z,-1.40
2017-12-04T03:25:21.544Z,-1.50
2017-12-04T03:30:50.450Z,-1.50
2017-12-04T03:36:19.528Z,-1.50
2017-12-04T03:41:48.471Z,-1.50
2017-12-04T03:47:17.405Z,-1.50
2017-12-04T03:52:46.300Z,-1.50
2017-12-04T03:58:14.501Z,-1.50
2017-12-04T04:03:42.668Z,-1.60
2017-12-04T04:09:10.797Z,-1.60
2017-12-04T04:14:39.705Z,-1.60
2017-12-04T04:20:07.865Z,-1.50
2017-12-04T04:25:37.936Z,-1.50
2017-12-04T04:31:06.094Z,-1.40
2017-12-04T04:36:34.238Z,-1.40
2017-12-04T04:42:21.562Z,-1.40
2017-12-04T04:47:50.021Z,-1.30
2017-12-04T04:53:18.174Z,-1.40
2017-12-04T04:58:46.319Z,-1.30
2017-12-04T05:04:14.475Z,-1.30
2017-12-04T05:09:46.024Z,-1.20
2017-12-04T05:15:14.949Z,-1.20
2017-12-04T05:20:43.855Z,-1.20
2017-12-04T05:26:12.322Z,-1.10
2017-12-04T05:31:47.013Z,-1.10
2017-12-04T05:37:20.140Z,-1.00
2017-12-04T05:42:49.050Z,-1.00
2017-12-04T05:48:19.170Z,-1.00
2017-12-04T05:53:47.321Z,-0.90
2017-12-04T05:59:15.477Z,-0.90
2017-12-04T06:04:43.627Z,-0.90
2017-12-04T06:10:13.526Z,-0.90
2017-12-04T06:15:41.691Z,-0.90
2017-12-04T06:21:09.972Z,-0.90
2017-12-04T06:26:40.883Z,-0.90
2017-12-04T06:32:09.024Z,-0.90
2017-12-04T06:37:38.915Z,-0.90
2017-12-04T06:43:07.061Z,-0.90
2017-12-04T06:48:35.220Z,-0.80
2017-12-04T06:54:03.390Z,-0.80
2017-12-04T06:59:31.531Z,-0.80
2017-12-04T07:05:00.344Z,-0.70
2017-12-04T07:10:28.521Z,-0.60
2017-12-04T07:15:57.432Z,-0.60
2017-12-04T07:21:25.880Z,-0.50
2017-12-04T07:26:54.032Z,-0.40
2017-12-04T07:32:22.172Z,-0.40
2017-12-04T07:37:50.319Z,-0.30
2017-12-04T07:43:19.200Z,-0.30
2017-12-04T07:48:47.356Z,-0.10
2017-12-04T07:54:20.028Z,-0.10
2017-12-04T07:59:48.171Z,-0.20
2017-12-04T08:05:16.324Z,-0.20
2017-12-04T08:10:44.540Z,-0.30
2017-12-04T08:16:13.416Z,-0.30
2017-12-04T08:21:42.482Z,-0.30
2017-12-04T08:27:10.712Z,-0.30
2017-12-04T08:32:39.198Z,-0.20
2017-12-04T08:38:07.342Z,-0.20
2017-12-04T08:43:36.600Z,-0.10
2017-12-04T08:49:04.734Z,0.10
2017-12-04T08:54:32.931Z,0.20
2017-12-04T09:00:07.684Z,0.20
2017-12-04T09:05:46.528Z,0.30
2017-12-04T09:11:14.674Z,0.40
2017-12-04T09:16:42.804Z,0.50
2017-12-04T09:22:11.724Z,0.60
2017-12-04T09:27:39.876Z,0.70
2017-12-04T09:33:08.010Z,0.80
2017-12-04T09:38:36.165Z,0.80
2017-12-04T09:44:04.313Z,0.80
2017-12-04T09:49:33.342Z,0.90
2017-12-04T09:55:03.489Z,0.90
2017-12-04T10:00:31.783Z,0.90
2017-12-04T10:05:59.935Z,1.00
2017-12-04T10:11:28.072Z,1.00
2017-12-04T10:17:01.228Z,0.90
2017-12-04T10:22:31.577Z,0.90
2017-12-04T10:27:59.768Z,0.90
2017-12-04T10:33:27.959Z,0.80
2017-12-04T10:38:56.384Z,0.60
2017-12-04T10:44:24.521Z,0.70
2017-12-04T10:49:52.650Z,0.80
2017-12-04T10:55:20.909Z,0.90
2017-12-04T11:00:49.828Z,1.00
2017-12-04T11:06:19.418Z,1.10
2017-12-04T11:11:49.003Z,1.20
2017-12-04T11:17:17.148Z,1.20
2017-12-04T11:22:45.361Z,1.30
2017-12-04T11:28:13.565Z,1.40
2017-12-04T11:33:41.758Z,1.40
2017-12-04T11:39:11.315Z,1.30
2017-12-04T11:44:40.131Z,1.30
2017-12-04T11:50:08.280Z,1.30
2017-12-04T11:56:04.596Z,1.30
2017-12-04T12:01:32.742Z,1.30
2017-12-04T12:07:00.900Z,1.40
2017-12-04T12:12:29.083Z,1.40
2017-12-04T12:17:57.292Z,1.40
2017-12-04T12:23:25.803Z,1.50
2017-12-04T12:28:54.003Z,1.50
2017-12-04T12:34:22.142Z,1.50
2017-12-04T12:39:50.973Z,1.60
2017-12-04T12:45:19.115Z,1.60
2017-12-04T12:50:48.029Z,1.60
2017-12-04T12:56:16.191Z,1.60
2017-12-04T13:01:44.763Z,1.60
2017-12-04T13:07:13.391Z,1.60
2017-12-04T13:12:42.237Z,1.60
2017-12-04T13:18:11.564Z,1.50
2017-12-04T13:23:39.711Z,1.50
2017-12-04T13:29:07.857Z,1.50
2017-12-04T13:34:53.925Z,1.40
2017-12-04T13:40:22.804Z,1.40
2017-12-04T13:45:51.364Z,1.30
2017-12-04T13:51:32.683Z,1.20
2017-12-04T13:57:01.694Z,1.20
2017-12-04T14:02:29.841Z,1.20
2017-12-04T14:07:57.977Z,1.20
2017-12-04T14:13:26.117Z,1.20
2017-12-04T14:18:55.110Z,1.20
2017-12-04T14:24:24.454Z,1.20
2017-12-04T14:29:52.595Z,1.20
2017-12-04T14:35:20.736Z,1.20
2017-12-04T14:40:48.866Z,1.20
2017-12-04T14:46:17.793Z,1.20
2017-12-04T14:51:46.704Z,1.20
2017-12-04T14:57:14.848Z,1.20
2017-12-04T15:02:42.985Z,1.20
2017-12-04T15:08:11.894Z,1.20
2017-12-04T15:13:40.038Z,1.10
2017-12-04T15:19:08.921Z,1.20
2017-12-04T15:24:37.068Z,1.10
2017-12-04T15:30:05.209Z,1.20
2017-12-04T15:35:34.110Z,1.20
2017-12-04T15:41:02.252Z,1.20
2017-12-04T15:46:30.454Z,1.30
2017-12-04T15:51:58.591Z,1.20
2017-12-04T15:57:26.908Z,1.20
2017-12-04T16:02:55.861Z,1.20
2017-12-04T16:08:24.826Z,1.20
2017-12-04T16:13:52.969Z,1.10
2017-12-04T16:19:21.119Z,1.10
2017-12-04T16:24:49.266Z,1.20
2017-12-04T16:30:18.225Z,1.20
2017-12-04T16:35:46.370Z,1.20
2017-12-04T16:41:14.521Z,1.30
2017-12-04T16:46:44.587Z,1.30
2017-12-04T16:52:12.768Z,1.40
2017-12-04T16:57:40.907Z,1.40
2017-12-04T17:03:09.031Z,1.50
2017-12-04T17:08:37.161Z,1.50
2017-12-04T17:14:05.322Z,1.60
2017-12-04T17:19:37.021Z,1.70
2017-12-04T17:25:05.165Z,1.70
2017-12-04T17:30:34.252Z,1.70
2017-12-04T17:36:04.330Z,1.80
2017-12-04T17:41:35.203Z,1.80
2017-12-04T17:47:06.823Z,1.80
2017-12-04T17:52:36.008Z,1.80
2017-12-04T17:58:04.178Z,1.80
2017-12-04T18:03:33.103Z,1.80
2017-12-04T18:09:02.040Z,1.80
2017-12-04T18:14:31.211Z,1.80
2017-12-04T18:19:59.664Z,1.70
2017-12-04T18:25:31.443Z,1.70
2017-12-04T18:31:05.204Z,1.70
2017-12-04T18:36:35.002Z,1.70
2017-12-04T18:42:03.144Z,1.70
2017-12-04T18:47:41.184Z,1.60
2017-12-04T18:53:09.452Z,1.60
2017-12-04T18:58:37.614Z,1.70
2017-12-04T19:04:25.667Z,1.60
2017-12-04T19:09:53.842Z,1.60
2017-12-04T19:15:27.441Z,1.50
2017-12-04T19:20:55.826Z,1.50
2017-12-04T19:26:26.757Z,1.50
2017-12-04T19:31:54.936Z,1.60
2017-12-04T19:37:25.132Z,1.60
2017-12-04T19:42:53.279Z,1.60
2017-12-04T19:48:22.397Z,1.60
2017-12-04T19:53:50.564Z,1.60
2017-12-04T19:59:18.823Z,1.60
2017-12-04T20:04:47.729Z,1.50
2017-12-04T20:10:17.841Z,1.40
2017-12-04T20:15:45.976Z,1.40
2017-12-04T20:21:18.152Z,1.50
2017-12-04T20:26:47.064Z,1.50
2017-12-04T20:32:15.207Z,1.60
2017-12-04T20:37:43.426Z,1.60
2017-12-04T20:43:12.466Z,1.60
2017-12-04T20:48:41.595Z,1.70
2017-12-04T20:54:10.527Z,1.70
2017-12-04T20:59:38.646Z,1.70
2017-12-04T21:05:06.778Z,1.70
2017-12-04T21:10:56.742Z,1.70
2017-12-04T21:16:57.765Z,1.80
2017-12-04T21:22:25.925Z,1.80
2017-12-04T21:27:59.882Z,1.90
2017-12-04T21:33:28.910Z,1.90
2017-12-04T21:39:02.772Z,1.90
2017-12-04T21:44:46.111Z,1.90
2017-12-04T21:50:16.209Z,1.90
2017-12-04T21:55:44.506Z,1.90
2017-12-04T22:01:12.679Z,1.90
2017-12-04T22:06:40.861Z,1.90
2017-12-04T22:12:13.508Z,1.90
2017-12-04T22:17:42.427Z,2.00
2017-12-04T22:23:10.613Z,2.00
2017-12-04T22:28:40.018Z,2.00
2017-12-04T22:34:08.209Z,2.00
2017-12-04T22:39:36.350Z,1.90
2017-12-04T22:45:05.307Z,2.00
2017-12-04T22:50:35.487Z,1.90
2017-12-04T22:56:03.635Z,1.90
2017-12-04T23:01:31.852Z,1.90
2017-12-04T23:06:59.985Z,1.90
2017-12-04T23:12:28.182Z,1.90
2017-12-04T23:17:56.328Z,1.90
2017-12-04T23:23:24.686Z,1.90
2017-12-04T23:28:56.419Z,2.00
2017-12-04T23:34:24.583Z,1.90
2017-12-04T23:39:53.831Z,1.90
2017-12-04T23:45:21.996Z,1.90
2017-12-04T23:50:50.151Z,2.00
2017-12-04T23:56:19.226Z,2.00
